createdAt,value
2017-11-22T00:01:33.901Z,6.50
2017-11-22T00:04:01.461Z,5.40
2017-11-22T00:06:29.030Z,6.50
2017-11-22T00:08:56.590Z,6.00
2017-11-22T00:11:24.246Z,6.10
2017-11-22T00:13:51.841Z,5.73
2017-11-22T00:16:19.401Z,6.47
2017-11-22T00:18:46.962Z,7.30
2017-11-22T00:21:14.522Z,7.43
2017-11-22T00:23:42.089Z,7.53
2017-11-22T00:26:09.657Z,8.10
2017-11-22T00:28:37.226Z,6.80
2017-11-22T00:31:04.823Z,6.53
2017-11-22T00:33:32.395Z,7.27
2017-11-22T00:35:59.957Z,6.53
2017-11-22T00:38:27.520Z,7.80
2017-11-22T00:40:55.082Z,6.50
2017-11-22T00:43:22.649Z,5.47
2017-11-22T00:45:50.214Z,6.10
2017-11-22T00:48:17.775Z,5.90
2017-11-22T00:50:45.374Z,6.77
2017-11-22T00:53:12.933Z,4.97
2017-11-22T00:55:40.497Z,6.27
2017-11-22T00:58:08.056Z,5.00
2017-11-22T01:00:35.617Z,5.27
2017-11-22T01:03:03.222Z,6.43
2017-11-22T01:05:30.781Z,6.10
2017-11-22T01:07:58.335Z,5.50
2017-11-22T01:10:25.895Z,5.23
2017-11-22T01:12:53.453Z,4.90
2017-11-22T01:15:21.021Z,5.17
2017-11-22T01:17:48.575Z,6.00
2017-11-22T01:20:16.130Z,5.10
2017-11-22T01:22:43.701Z,5.97
2017-11-22T01:25:11.262Z,4.97
2017-11-22T01:27:38.821Z,5.77
2017-11-22T01:30:06.382Z,5.60
2017-11-22T01:32:33.980Z,4.97
2017-11-22T01:35:01.538Z,4.60
2017-11-22T01:37:29.098Z,4.70
2017-11-22T01:39:56.713Z,5.23
2017-11-22T01:42:24.278Z,5.70
2017-11-22T01:44:51.841Z,5.20
2017-11-22T01:47:19.412Z,5.80
2017-11-22T01:49:46.986Z,6.33
2017-11-22T01:52:14.544Z,5.77
2017-11-22T01:54:42.110Z,7.20
2017-11-22T01:57:09.713Z,7.40
2017-11-22T01:59:37.276Z,9.10
2017-11-22T02:02:04.841Z,7.90
2017-11-22T02:04:32.409Z,9.13
2017-11-22T02:06:59.984Z,9.27
2017-11-22T02:09:27.552Z,8.30
2017-11-22T02:11:55.118Z,12.70
2017-11-22T02:14:22.687Z,14.77
2017-11-22T02:16:50.244Z,14.67
2017-11-22T02:19:17.808Z,13.00
2017-11-22T02:21:46.275Z,15.27
2017-11-22T02:24:13.841Z,14.40
2017-11-22T02:26:41.404Z,17.40
2017-11-22T02:29:09.009Z,14.73
2017-11-22T02:31:36.575Z,16.27
2017-11-22T02:34:05.022Z,16.67
2017-11-22T02:36:32.585Z,14.90
2017-11-22T02:39:00.927Z,16.37
2017-11-22T02:41:29.291Z,16.23
2017-11-22T02:43:56.914Z,17.40
2017-11-22T02:46:24.488Z,15.67
2017-11-22T02:48:52.063Z,14.67
2017-11-22T02:51:20.526Z,19.03
2017-11-22T02:53:48.088Z,19.90
2017-11-22T02:56:15.712Z,17.93
2017-11-22T02:58:44.078Z,19.47
2017-11-22T03:01:12.458Z,19.17
2017-11-22T03:03:40.017Z,21.07
2017-11-22T03:06:07.626Z,18.30
2017-11-22T03:08:35.193Z,20.63
2017-11-22T03:11:02.753Z,20.00
2017-11-22T03:13:30.322Z,21.73
2017-11-22T03:15:57.932Z,20.47
2017-11-22T03:18:26.421Z,20.13
2017-11-22T03:20:53.980Z,19.30
2017-11-22T03:23:22.463Z,20.67
2017-11-22T03:25:50.026Z,19.00
2017-11-22T03:28:18.407Z,19.90
2017-11-22T03:30:46.791Z,20.53
2017-11-22T03:33:14.429Z,21.40
2017-11-22T03:35:41.995Z,19.17
2017-11-22T03:38:09.564Z,17.40
2017-11-22T03:40:37.129Z,19.27
2017-11-22T03:43:04.689Z,18.17
2017-11-22T03:45:32.253Z,18.80
2017-11-22T03:48:18.472Z,18.57
2017-11-22T03:50:51.777Z,18.53
2017-11-22T03:53:24.959Z,17.33
2017-11-22T03:55:52.525Z,18.67
2017-11-22T03:58:21.902Z,17.63
2017-11-22T04:00:49.665Z,20.50
2017-11-22T04:03:17.234Z,19.57
2017-11-22T04:05:57.536Z,18.90
2017-11-22T04:08:27.707Z,17.97
2017-11-22T04:10:55.280Z,16.93
2017-11-22T04:13:23.660Z,18.67
2017-11-22T04:15:51.221Z,17.30
2017-11-22T04:18:20.734Z,16.83
2017-11-22T04:20:53.850Z,18.30
2017-11-22T04:23:21.413Z,15.23
2017-11-22T04:25:48.976Z,17.27
2017-11-22T04:28:16.545Z,18.30
2017-11-22T04:30:44.109Z,17.20
2017-11-22T04:33:11.681Z,18.27
2017-11-22T04:35:40.056Z,17.23
2017-11-22T04:38:07.627Z,15.53
2017-11-22T04:40:35.194Z,15.37
2017-11-22T04:43:02.760Z,16.73
2017-11-22T04:45:31.255Z,17.13
2017-11-22T04:47:58.855Z,15.90
2017-11-22T04:50:27.226Z,15.87
2017-11-22T04:52:54.793Z,18.63
2017-11-22T04:55:23.254Z,18.47
2017-11-22T04:57:50.819Z,15.37
2017-11-22T05:00:18.397Z,16.37
2017-11-22T05:02:45.958Z,16.80
2017-11-22T05:05:14.468Z,14.73
2017-11-22T05:07:42.032Z,16.10
2017-11-22T05:10:09.596Z,15.27
2017-11-22T05:12:37.158Z,15.63
2017-11-22T05:15:05.645Z,16.93
2017-11-22T05:17:34.111Z,15.27
2017-11-22T05:20:02.477Z,14.97
2017-11-22T05:22:30.044Z,14.50
2017-11-22T05:24:57.606Z,14.50
2017-11-22T05:27:25.205Z,15.97
2017-11-22T05:29:52.775Z,13.70
2017-11-22T05:32:21.197Z,15.50
2017-11-22T05:34:49.565Z,14.30
2017-11-22T05:37:17.133Z,14.63
2017-11-22T05:39:45.615Z,15.17
2017-11-22T05:42:13.973Z,14.93
2017-11-22T05:44:41.553Z,15.33
2017-11-22T05:47:09.126Z,13.93
2017-11-22T05:49:36.696Z,15.60
2017-11-22T05:52:05.197Z,14.00
2017-11-22T05:54:32.814Z,14.97
2017-11-22T05:57:00.381Z,15.30
2017-11-22T05:59:27.941Z,15.60
2017-11-22T06:01:55.512Z,13.90
2017-11-22T06:04:23.077Z,14.23
2017-11-22T06:06:50.640Z,13.83
2017-11-22T06:09:18.246Z,15.30
2017-11-22T06:11:46.589Z,15.37
2017-11-22T06:14:14.150Z,13.67
2017-11-22T06:16:41.752Z,15.23
2017-11-22T06:19:09.434Z,13.83
2017-11-22T06:21:36.998Z,13.73
2017-11-22T06:24:04.559Z,13.97
2017-11-22T06:26:32.122Z,14.30
2017-11-22T06:28:59.677Z,14.40
2017-11-22T06:31:27.237Z,13.50
2017-11-22T06:33:54.837Z,14.03
2017-11-22T06:36:23.169Z,13.53
2017-11-22T06:38:51.386Z,13.10
2017-11-22T06:41:18.955Z,15.27
2017-11-22T06:43:46.517Z,14.17
2017-11-22T06:46:14.078Z,13.50
2017-11-22T06:48:41.642Z,11.70
2017-11-22T06:51:09.253Z,11.80
2017-11-22T06:53:36.823Z,12.30
2017-11-22T06:56:04.390Z,12.70
2017-11-22T06:58:32.760Z,13.03
2017-11-22T07:01:00.329Z,12.33
2017-11-22T07:06:21.649Z,12.90
2017-11-22T07:08:50.062Z,13.57
2017-11-22T07:11:18.648Z,11.80
2017-11-22T07:13:46.222Z,11.50
2017-11-22T07:16:19.538Z,12.10
2017-11-22T07:18:47.112Z,11.63
2017-11-22T07:21:14.679Z,12.13
2017-11-22T07:23:42.280Z,13.87
2017-11-22T07:26:10.623Z,12.73
2017-11-22T07:28:38.978Z,13.97
2017-11-22T07:31:13.985Z,14.73
2017-11-22T07:33:41.550Z,13.50
2017-11-22T07:36:14.750Z,12.27
2017-11-22T07:38:42.310Z,14.10
2017-11-22T07:41:10.649Z,14.30
2017-11-22T07:43:39.104Z,15.13
2017-11-22T07:46:10.534Z,14.90
2017-11-22T07:48:38.098Z,13.43
2017-11-22T07:51:12.234Z,12.40
2017-11-22T07:53:40.731Z,13.77
2017-11-22T07:56:09.105Z,13.23
2017-11-22T07:58:37.316Z,15.90
2017-11-22T08:01:04.919Z,13.03
2017-11-22T08:03:35.346Z,12.57
2017-11-22T08:06:02.931Z,12.80
2017-11-22T08:08:30.497Z,11.50
2017-11-22T08:10:58.056Z,12.43
2017-11-22T08:13:25.622Z,12.33
2017-11-22T08:15:53.182Z,12.87
2017-11-22T08:18:20.764Z,12.20
2017-11-22T08:20:50.147Z,11.73
2017-11-22T08:23:18.645Z,11.63
2017-11-22T08:25:46.250Z,12.23
2017-11-22T08:28:13.804Z,13.07
2017-11-22T08:30:43.197Z,11.90
2017-11-22T08:33:11.695Z,11.43
2017-11-22T08:35:39.262Z,10.63
2017-11-22T08:38:06.828Z,10.67
2017-11-22T08:40:35.373Z,11.50
2017-11-22T08:43:08.597Z,9.87
2017-11-22T08:45:36.162Z,12.53
2017-11-22T08:48:04.538Z,9.93
2017-11-22T08:50:32.116Z,10.93
2017-11-22T08:52:59.729Z,10.87
2017-11-22T08:55:32.813Z,10.67
2017-11-22T08:58:07.028Z,10.10
2017-11-22T09:00:34.585Z,9.70
2017-11-22T09:03:02.918Z,10.57
2017-11-22T09:05:31.394Z,10.53
2017-11-22T09:07:59.913Z,9.33
2017-11-22T09:10:27.469Z,9.73
2017-11-22T09:12:55.026Z,9.43
2017-11-22T09:15:22.586Z,10.57
2017-11-22T09:17:50.158Z,9.27
2017-11-22T09:20:19.026Z,9.40
2017-11-22T09:22:46.585Z,8.60
2017-11-22T09:25:16.821Z,9.57
2017-11-22T09:27:49.865Z,9.43
2017-11-22T09:30:19.680Z,9.90
2017-11-22T09:32:47.244Z,8.97
2017-11-22T09:35:16.652Z,8.67
2017-11-22T09:37:44.217Z,10.20
2017-11-22T09:40:11.782Z,8.90
2017-11-22T09:42:39.356Z,9.57
2017-11-22T09:45:06.921Z,9.53
2017-11-22T09:47:34.480Z,9.60
2017-11-22T09:50:02.045Z,10.63
2017-11-22T09:52:29.650Z,10.23
2017-11-22T09:54:57.230Z,10.20
2017-11-22T09:57:24.785Z,8.60
2017-11-22T09:59:52.349Z,8.60
2017-11-22T10:02:20.714Z,9.60
2017-11-22T10:04:48.286Z,9.17
2017-11-22T10:07:16.861Z,7.53
2017-11-22T10:09:44.433Z,10.87
2017-11-22T10:12:12.006Z,8.00
2017-11-22T10:14:39.564Z,8.70
2017-11-22T10:17:13.193Z,9.17
2017-11-22T10:22:46.187Z,9.97
2017-11-22T10:25:19.701Z,7.17
2017-11-22T10:27:47.321Z,8.00
2017-11-22T10:30:14.883Z,8.47
2017-11-22T10:32:48.058Z,8.27
2017-11-22T10:35:16.542Z,8.70
2017-11-22T10:37:44.111Z,8.00
2017-11-22T10:40:11.670Z,8.60
2017-11-22T10:42:39.385Z,7.17
2017-11-22T10:45:06.954Z,8.67
2017-11-22T10:47:34.518Z,8.47
2017-11-22T10:50:02.077Z,8.57
2017-11-22T10:52:29.637Z,8.20
2017-11-22T10:54:58.111Z,8.00
2017-11-22T10:57:25.675Z,7.77
2017-11-22T10:59:53.246Z,8.30
2017-11-22T11:02:20.821Z,7.87
2017-11-22T11:04:48.392Z,7.80
2017-11-22T11:07:15.969Z,6.90
2017-11-22T11:09:43.538Z,7.10
2017-11-22T11:12:11.159Z,7.10
2017-11-22T11:14:39.657Z,7.60
2017-11-22T11:17:07.241Z,7.40
2017-11-22T11:19:34.806Z,6.90
2017-11-22T11:22:03.206Z,7.57
2017-11-22T11:24:30.775Z,6.67
2017-11-22T11:26:59.241Z,7.33
2017-11-22T11:29:26.816Z,7.10
2017-11-22T11:31:54.385Z,6.30
2017-11-22T11:34:21.993Z,7.60
2017-11-22T11:36:50.354Z,6.10
2017-11-22T11:39:17.922Z,7.30
2017-11-22T11:41:45.489Z,7.13
2017-11-22T11:44:13.065Z,6.73
2017-11-22T11:46:40.635Z,6.70
2017-11-22T11:49:08.986Z,6.33
2017-11-22T11:51:36.554Z,7.47
2017-11-22T11:54:05.052Z,6.30
2017-11-22T11:56:32.621Z,5.90
2017-11-22T11:59:00.186Z,6.83
2017-11-22T12:01:27.761Z,6.60
2017-11-22T12:03:55.326Z,5.93
2017-11-22T12:06:22.895Z,5.70
2017-11-22T12:08:50.462Z,6.97
2017-11-22T12:11:18.029Z,5.80
2017-11-22T12:13:45.602Z,6.87
2017-11-22T12:16:13.209Z,7.23
2017-11-22T12:18:40.780Z,7.40
2017-11-22T12:21:10.188Z,6.40
2017-11-22T12:23:38.554Z,6.90
2017-11-22T12:26:06.127Z,5.97
2017-11-22T12:28:33.690Z,6.37
2017-11-22T12:31:01.298Z,7.40
2017-11-22T12:33:28.864Z,6.80
2017-11-22T12:35:56.430Z,7.23
2017-11-22T12:38:23.998Z,7.30
2017-11-22T12:40:51.581Z,6.40
2017-11-22T12:43:19.150Z,7.30
2017-11-22T12:45:46.715Z,6.67
2017-11-22T12:48:14.291Z,6.00
2017-11-22T12:50:41.854Z,6.80
2017-11-22T12:53:09.425Z,5.90
2017-11-22T12:55:36.985Z,6.47
2017-11-22T12:58:19.064Z,5.80
2017-11-22T13:00:46.630Z,6.47
2017-11-22T13:03:14.199Z,7.20
2017-11-22T13:05:43.574Z,5.87
2017-11-22T13:08:11.165Z,6.30
2017-11-22T13:10:45.255Z,7.33
2017-11-22T13:13:12.864Z,5.77
2017-11-22T13:15:40.433Z,5.47
2017-11-22T13:18:08.009Z,6.20
2017-11-22T13:20:35.574Z,6.53
2017-11-22T13:23:03.937Z,6.50
2017-11-22T13:25:31.554Z,6.30
2017-11-22T13:27:59.115Z,6.57
2017-11-22T13:30:26.685Z,5.93
2017-11-22T13:32:54.258Z,7.30
2017-11-22T13:35:22.594Z,6.70
2017-11-22T13:37:50.993Z,6.17
2017-11-22T13:40:21.214Z,6.47
2017-11-22T13:42:49.050Z,7.53
2017-11-22T13:45:17.518Z,6.07
2017-11-22T13:47:45.855Z,6.43
2017-11-22T13:50:14.197Z,5.83
2017-11-22T13:52:41.765Z,6.47
2017-11-22T13:55:10.230Z,7.00
2017-11-22T13:57:37.819Z,7.03
2017-11-22T14:00:05.384Z,5.77
2017-11-22T14:02:32.948Z,6.53
2017-11-22T14:05:01.314Z,6.90
2017-11-22T14:07:28.908Z,7.03
2017-11-22T14:09:56.475Z,6.40
2017-11-22T14:12:24.048Z,7.87
2017-11-22T14:14:51.609Z,6.27
2017-11-22T14:17:19.164Z,6.80
2017-11-22T14:19:46.730Z,5.70
2017-11-22T14:22:14.293Z,7.53
2017-11-22T14:24:41.861Z,6.70
2017-11-22T14:27:09.426Z,7.10
2017-11-22T14:29:36.988Z,7.03
2017-11-22T14:32:04.556Z,6.70
2017-11-22T14:34:32.117Z,7.27
2017-11-22T14:36:59.696Z,7.20
2017-11-22T14:39:28.125Z,7.57
2017-11-22T14:41:55.726Z,6.83
2017-11-22T14:44:24.058Z,6.30
2017-11-22T14:46:51.627Z,6.20
2017-11-22T14:49:20.111Z,7.33
2017-11-22T14:51:47.717Z,7.37
2017-11-22T14:54:15.282Z,6.87
2017-11-22T14:56:42.866Z,7.40
2017-11-22T14:59:10.424Z,6.30
2017-11-22T15:01:37.989Z,7.60
2017-11-22T15:04:05.610Z,8.27
2017-11-22T15:06:33.186Z,7.80
2017-11-22T15:09:00.748Z,7.03
2017-11-22T15:11:28.434Z,6.37
2017-11-22T15:13:56.928Z,7.47
2017-11-22T15:16:24.493Z,7.60
2017-11-22T15:18:52.892Z,7.73
2017-11-22T15:21:20.465Z,7.87
2017-11-22T15:23:48.061Z,8.23
2017-11-22T15:26:15.627Z,9.00
2017-11-22T15:28:43.217Z,8.50
2017-11-22T15:31:10.788Z,8.77
2017-11-22T15:33:38.366Z,7.63
2017-11-22T15:36:05.936Z,8.07
2017-11-22T15:38:33.517Z,9.10
2017-11-22T15:41:01.113Z,8.40
2017-11-22T15:43:28.677Z,8.53
2017-11-22T15:45:56.241Z,6.50
2017-11-22T15:48:23.803Z,7.40
2017-11-22T15:50:51.409Z,7.70
2017-11-22T15:53:18.985Z,9.00
2017-11-22T15:55:46.548Z,7.07
2017-11-22T15:58:14.128Z,7.20
2017-11-22T16:00:41.694Z,7.33
2017-11-22T16:03:09.258Z,7.47
2017-11-22T16:05:36.836Z,8.17
2017-11-22T16:08:04.440Z,7.90
2017-11-22T16:10:32.005Z,9.40
2017-11-22T16:12:59.592Z,7.83
2017-11-22T16:15:27.178Z,8.93
2017-11-22T16:17:54.745Z,8.27
2017-11-22T16:20:22.326Z,8.57
2017-11-22T16:22:50.801Z,8.13
2017-11-22T16:25:20.897Z,7.90
2017-11-22T16:27:48.629Z,8.57
2017-11-22T16:30:19.646Z,8.20
2017-11-22T16:32:47.230Z,8.17
2017-11-22T16:35:15.730Z,8.80
2017-11-22T16:37:43.283Z,9.03
2017-11-22T16:40:10.848Z,7.20
2017-11-22T16:42:38.413Z,8.40
2017-11-22T16:45:06.912Z,7.33
2017-11-22T16:47:35.373Z,8.53
2017-11-22T16:50:03.725Z,7.93
2017-11-22T16:52:31.330Z,7.37
2017-11-22T16:54:58.972Z,7.27
2017-11-22T16:57:26.590Z,7.47
2017-11-22T16:59:54.150Z,8.23
2017-11-22T17:02:22.632Z,7.37
2017-11-22T17:04:51.102Z,9.43
2017-11-22T17:07:18.681Z,7.20
2017-11-22T17:09:47.041Z,7.53
2017-11-22T17:12:15.518Z,7.43
2017-11-22T17:14:43.864Z,7.60
2017-11-22T17:17:12.231Z,7.57
2017-11-22T17:19:40.827Z,6.83
2017-11-22T17:22:08.393Z,7.63
2017-11-22T17:24:36.745Z,7.53
2017-11-22T17:27:04.858Z,6.43
2017-11-22T17:29:33.215Z,8.73
2017-11-22T17:32:02.214Z,7.23
2017-11-22T17:34:29.787Z,7.17
2017-11-22T17:36:57.355Z,8.30
2017-11-22T17:39:24.909Z,8.60
2017-11-22T17:41:52.466Z,7.30
2017-11-22T17:44:20.065Z,8.00
2017-11-22T17:46:47.631Z,8.20
2017-11-22T17:49:15.197Z,8.10
2017-11-22T17:51:42.762Z,7.37
2017-11-22T17:54:10.332Z,8.40
2017-11-22T17:56:37.932Z,8.80
2017-11-22T17:59:06.272Z,9.20
2017-11-22T18:01:34.326Z,9.33
2017-11-22T18:04:02.672Z,7.33
2017-11-22T18:06:30.243Z,8.50
2017-11-22T18:08:57.809Z,9.50
2017-11-22T18:11:25.372Z,8.00
2017-11-22T18:13:52.938Z,8.60
2017-11-22T18:16:20.550Z,8.83
2017-11-22T18:18:48.186Z,11.40
2017-11-22T18:21:15.759Z,9.43
2017-11-22T18:23:43.416Z,8.70
2017-11-22T18:26:10.975Z,8.80
2017-11-22T18:28:39.432Z,9.47
2017-11-22T18:31:07.777Z,11.47
2017-11-22T18:33:35.350Z,11.33
2017-11-22T18:36:02.922Z,11.03
2017-11-22T18:38:30.526Z,10.50
2017-11-22T18:40:58.109Z,9.43
2017-11-22T18:43:25.716Z,10.47
2017-11-22T18:45:53.280Z,9.37
2017-11-22T18:48:20.842Z,10.13
2017-11-22T18:50:49.235Z,10.30
2017-11-22T18:53:16.843Z,9.57
2017-11-22T18:55:44.405Z,10.43
2017-11-22T18:58:12.003Z,10.47
2017-11-22T19:00:39.598Z,9.10
2017-11-22T19:03:07.167Z,10.30
2017-11-22T19:05:34.734Z,10.30
2017-11-22T19:08:02.302Z,10.90
2017-11-22T19:10:29.867Z,10.57
2017-11-22T19:12:57.489Z,11.03
2017-11-22T19:15:25.122Z,9.87
2017-11-22T19:17:52.722Z,10.30
2017-11-22T19:20:20.300Z,9.47
2017-11-22T19:22:47.861Z,10.50
2017-11-22T19:25:15.440Z,10.30
2017-11-22T19:27:43.027Z,10.23
2017-11-22T19:30:10.648Z,10.13
2017-11-22T19:32:38.220Z,11.33
2017-11-22T19:35:05.799Z,12.20
2017-11-22T19:37:33.402Z,10.10
2017-11-22T19:40:00.971Z,11.07
2017-11-22T19:42:28.545Z,11.43
2017-11-22T19:44:56.110Z,10.40
2017-11-22T19:47:23.682Z,11.30
2017-11-22T19:49:51.246Z,11.50
2017-11-22T19:52:19.712Z,11.03
2017-11-22T19:54:47.309Z,10.97
2017-11-22T19:57:14.902Z,10.50
2017-11-22T19:59:42.533Z,8.90
2017-11-22T20:02:10.119Z,11.27
2017-11-22T20:04:37.687Z,11.13
2017-11-22T20:07:17.211Z,11.57
2017-11-22T20:09:44.850Z,12.00
2017-11-22T20:12:12.416Z,11.73
2017-11-22T20:14:40.812Z,10.73
2017-11-22T20:17:09.157Z,13.60
2017-11-22T20:19:36.938Z,12.17
2017-11-22T20:22:05.554Z,12.43
2017-11-22T20:24:33.470Z,11.57
2017-11-22T20:27:01.038Z,12.30
2017-11-22T20:29:28.656Z,12.17
2017-11-22T20:31:56.615Z,11.70
2017-11-22T20:34:25.876Z,11.23
2017-11-22T20:36:55.571Z,12.83
2017-11-22T20:39:23.494Z,13.70
2017-11-22T20:41:51.845Z,12.57
2017-11-22T20:44:19.864Z,13.70
2017-11-22T20:46:47.513Z,12.37
2017-11-22T20:49:15.074Z,13.30
2017-11-22T20:51:42.723Z,13.80
2017-11-22T20:54:10.297Z,13.40
2017-11-22T20:56:37.862Z,11.73
2017-11-22T20:59:05.435Z,12.17
2017-11-22T21:01:33.001Z,14.40
2017-11-22T21:04:00.585Z,14.37
2017-11-22T21:06:29.083Z,15.10
2017-11-22T21:08:57.472Z,15.13
2017-11-22T21:11:25.923Z,14.20
2017-11-22T21:13:53.489Z,13.70
2017-11-22T21:16:21.881Z,13.93
2017-11-22T21:18:49.447Z,13.77
2017-11-22T21:21:17.840Z,13.97
2017-11-22T21:23:46.224Z,13.80
2017-11-22T21:26:13.798Z,14.17
2017-11-22T21:28:42.117Z,15.70
2017-11-22T21:31:09.723Z,15.50
2017-11-22T21:33:37.354Z,13.83
2017-11-22T21:36:05.650Z,14.77
2017-11-22T21:38:33.242Z,15.40
2017-11-22T21:41:01.010Z,14.60
2017-11-22T21:43:28.586Z,14.20
2017-11-22T21:45:56.144Z,15.93
2017-11-22T21:48:23.753Z,14.93
2017-11-22T21:50:52.150Z,16.00
2017-11-22T21:53:20.666Z,15.27
2017-11-22T21:55:48.278Z,15.23
2017-11-22T21:58:16.739Z,14.20
2017-11-22T22:00:45.236Z,14.87
2017-11-22T22:03:13.600Z,14.73
2017-11-22T22:05:41.166Z,15.00
2017-11-22T22:08:08.735Z,15.23
2017-11-22T22:10:36.300Z,14.53
2017-11-22T22:13:03.885Z,14.10
2017-11-22T22:15:32.239Z,14.30
2017-11-22T22:18:00.610Z,12.93
2017-11-22T22:20:28.965Z,13.50
2017-11-22T22:22:56.542Z,13.87
2017-11-22T22:25:25.035Z,13.53
2017-11-22T22:27:53.401Z,13.70
2017-11-22T22:30:21.774Z,13.33
2017-11-22T22:32:50.158Z,13.50
2017-11-22T22:35:17.734Z,12.90
2017-11-22T22:37:46.243Z,13.77
2017-11-22T22:40:13.805Z,13.13
2017-11-22T22:42:42.169Z,13.60
2017-11-22T22:45:10.526Z,13.90
2017-11-22T22:47:38.886Z,13.37
2017-11-22T22:50:07.353Z,12.97
2017-11-22T22:52:35.821Z,13.23
2017-11-22T22:55:04.169Z,13.60
2017-11-22T22:57:31.790Z,15.40
2017-11-22T22:59:59.356Z,13.73
2017-11-22T23:02:26.922Z,14.60
2017-11-22T23:04:54.496Z,13.90
2017-11-22T23:07:22.894Z,12.47
2017-11-22T23:09:51.357Z,13.40
2017-11-22T23:12:18.917Z,13.00
2017-11-22T23:14:46.485Z,12.47
2017-11-22T23:17:15.026Z,13.50
2017-11-22T23:19:42.597Z,12.43
2017-11-22T23:22:10.188Z,13.47
2017-11-22T23:24:38.701Z,13.40
2017-11-22T23:27:07.036Z,15.30
2017-11-22T23:29:34.641Z,13.53
2017-11-22T23:32:02.206Z,12.47
2017-11-22T23:34:30.735Z,13.63
2017-11-22T23:36:59.068Z,12.37
2017-11-22T23:39:26.686Z,14.03
2017-11-22T23:41:54.288Z,14.53
2017-11-22T23:44:22.563Z,14.00
2017-11-22T23:46:50.833Z,13.40
2017-11-22T23:49:18.402Z,13.67
2017-11-22T23:51:46.659Z,14.20
2017-11-22T23:54:14.228Z,14.17
2017-11-22T23:56:42.201Z,12.20
2017-11-22T23:59:10.545Z,10.60
